PWSweather.com
Personal Weather Stations
Station Observations
SANDHURSTWX
SandhurstGB

SandhurstGB

Lat: 51.3522, Lon: -0.7739

Elevation: 272.3

Station Type: Davis VP2

www.sandhurstweather.org.uk

High Low Average
Temperature 62.7°F17.1°C 47.8°F8.8°C 56.5°F13.6°C
Dew Point 61.1°F16.2°C 46.2°F7.9°C 54.0°F12.2°C
Winds 8.1 mph 13.0 kmh Calm Calm 3.0 mph SSW4.8 kmh SSW
Wind Gusts 12.7 mph20.4 kmh -- 5.0 mph8.0 kmh
Humidity 98% 80% 92%
Pressure 29.88 in1011.9 mb 29.58 in1001.7 mb -
Precipitation 0.21 in5.3 mm - -
Hour Temp Dew Point Humidity Winds Wind Gusts Pressure Precip Precip Rate Daily Precip Total
12:00 AM 52.7°F11.5°C 49.8°F9.9°C 90% Calm Calm -- 29.79 in1008.8 mb - 0.00 in0.0 mm 0.00 in0.0 mm
01:00 AM 51.4°F10.8°C 49.2°F9.6°C 92% Calm Calm 6.9 mph11.1 kmh 29.80 in1009.1 mb - 0.00 in0.0 mm 0.00 in0.0 mm
02:00 AM 50.2°F10.1°C 48.0°F8.9°C 92% Calm Calm -- 29.81 in1009.5 mb - 0.00 in0.0 mm 0.00 in0.0 mm
03:00 AM 48.7°F9.3°C 46.8°F8.2°C 93% Calm Calm -- 29.82 in1009.8 mb - 0.00 in0.0 mm 0.00 in0.0 mm
04:00 AM 47.8°F8.8°C 46.2°F7.9°C 94% Calm Calm -- 29.83 in1010.2 mb - 0.00 in0.0 mm 0.00 in0.0 mm
05:00 AM 48.9°F9.4°C 47.8°F8.8°C 96% Calm Calm -- 29.84 in1010.5 mb - 0.00 in0.0 mm 0.00 in0.0 mm
06:00 AM 49.5°F9.7°C 48.4°F9.1°C 96% 2.3 mph SSW3.7 kmh SSW 2.3 mph3.7 kmh 29.85 in1010.8 mb - 0.00 in0.0 mm 0.00 in0.0 mm
07:00 AM 50.8°F10.4°C 50.0°F10.0°C 97% Calm Calm -- 29.86 in1011.2 mb - 0.00 in0.0 mm 0.00 in0.0 mm
08:00 AM 52.6°F11.4°C 51.8°F11.0°C 97% Calm Calm -- 29.88 in1011.9 mb - 0.00 in0.0 mm 0.00 in0.0 mm
09:00 AM 56.5°F13.6°C 54.8°F12.7°C 94% 2.3 mph S3.7 kmh S 1.2 mph1.9 kmh 29.88 in1011.9 mb - 0.00 in0.0 mm 0.00 in0.0 mm
10:00 AM 58.8°F14.9°C 55.9°F13.3°C 90% 1.2 mph S1.9 kmh S 3.5 mph5.6 kmh 29.88 in1011.9 mb - 0.00 in0.0 mm 0.00 in0.0 mm
11:00 AM 62.1°F16.7°C 57.2°F14.0°C 84% 2.3 mph SSE3.7 kmh SSE 4.6 mph7.4 kmh 29.86 in1011.2 mb - 0.00 in0.0 mm 0.00 in0.0 mm
12:00 PM 61.7°F16.5°C 55.5°F13.1°C 80% 4.6 mph SSW7.4 kmh SSW 6.9 mph11.1 kmh 29.85 in1010.8 mb - 0.00 in0.0 mm 0.00 in0.0 mm
01:00 PM 62.0°F16.7°C 55.7°F13.2°C 80% 3.5 mph S5.6 kmh S 3.5 mph5.6 kmh 29.83 in1010.2 mb - 0.00 in0.0 mm 0.00 in0.0 mm
02:00 PM 62.7°F17.1°C 56.8°F13.8°C 81% 4.6 mph S7.4 kmh S 4.6 mph7.4 kmh 29.82 in1009.8 mb - 0.00 in0.0 mm 0.00 in0.0 mm
03:00 PM 62.0°F16.7°C 56.1°F13.4°C 81% 5.8 mph SSE9.3 kmh SSE 9.2 mph14.8 kmh 29.78 in1008.5 mb - 0.00 in0.0 mm 0.00 in0.0 mm
04:00 PM 59.3°F15.2°C 56.1°F13.4°C 89% 3.5 mph SSE5.6 kmh SSE 6.9 mph11.1 kmh 29.75 in1007.5 mb - 0.00 in0.0 mm 0.00 in0.0 mm
05:00 PM 58.8°F14.9°C 56.2°F13.4°C 91% 8.1 mph S13.0 kmh S 12.7 mph20.4 kmh 29.72 in1006.4 mb - 0.02 in0.5 mm 0.02 in0.5 mm
06:00 PM 57.8°F14.3°C 56.1°F13.4°C 94% 8.1 mph S13.0 kmh S 10.4 mph16.7 kmh 29.69 in1005.4 mb - 0.06 in1.5 mm 0.07 in1.8 mm
07:00 PM 58.0°F14.4°C 56.9°F13.8°C 96% 5.8 mph S9.3 kmh S 12.7 mph20.4 kmh 29.65 in1004.1 mb - 0.06 in1.5 mm 0.13 in3.3 mm
08:00 PM 59.8°F15.4°C 58.9°F14.9°C 97% 4.6 mph S7.4 kmh S 12.7 mph20.4 kmh 29.62 in1003.0 mb - 0.02 in0.5 mm 0.16 in4.1 mm
09:00 PM 60.9°F16.1°C 60.4°F15.8°C 98% 4.6 mph S7.4 kmh S 4.6 mph7.4 kmh 29.59 in1002.0 mb - 0.04 in1.0 mm 0.20 in5.1 mm
10:00 PM 61.7°F16.5°C 61.1°F16.2°C 98% 3.5 mph SW5.6 kmh SW 5.8 mph9.3 kmh 29.58 in1001.7 mb - 0.01 in0.3 mm 0.21 in5.3 mm
11:00 PM 60.5°F15.8°C 59.6°F15.3°C 97% 2.3 mph SW3.7 kmh SW 2.3 mph3.7 kmh 29.59 in1002.0 mb - 0.00 in0.0 mm 0.21 in5.3 mm